createdAt,value
2018-05-09T00:01:02.647Z,46.46
2018-05-09T00:03:30.184Z,45.88
2018-05-09T00:05:57.706Z,46.12
2018-05-09T00:08:25.264Z,46.44
2018-05-09T00:10:53.271Z,46.31
2018-05-09T00:13:20.803Z,46.46
2018-05-09T00:15:48.331Z,46.38
2018-05-09T00:18:16.198Z,46.36
2018-05-09T00:20:43.722Z,46.90
2018-05-09T00:23:11.251Z,47.46
2018-05-09T00:25:38.820Z,47.13
2018-05-09T00:28:06.341Z,47.66
2018-05-09T00:30:33.866Z,47.68
2018-05-09T00:33:01.415Z,47.78
2018-05-09T00:35:28.971Z,47.10
2018-05-09T00:37:56.628Z,47.60
2018-05-09T00:40:24.168Z,48.27
2018-05-09T00:42:51.693Z,48.49
2018-05-09T00:45:19.352Z,47.98
2018-05-09T00:47:46.882Z,48.35
2018-05-09T00:50:14.477Z,48.02
2018-05-09T00:52:41.978Z,48.55
2018-05-09T00:55:09.507Z,49.11
2018-05-09T00:57:37.263Z,49.23
2018-05-09T01:00:04.809Z,49.41
2018-05-09T01:02:32.337Z,49.58
2018-05-09T01:04:59.881Z,49.15
2018-05-09T01:07:28.210Z,49.55
2018-05-09T01:09:55.790Z,50.31
2018-05-09T01:12:23.317Z,50.53
2018-05-09T01:14:50.839Z,50.66
2018-05-09T01:17:18.391Z,50.62
2018-05-09T01:19:46.344Z,50.99
2018-05-09T01:22:13.866Z,51.08
2018-05-09T01:24:41.418Z,50.58
2018-05-09T01:27:08.987Z,50.78
2018-05-09T01:29:36.513Z,51.59
2018-05-09T01:32:04.075Z,51.95
2018-05-09T01:34:31.626Z,51.48
2018-05-09T01:36:59.370Z,51.45
2018-05-09T01:39:26.904Z,52.26
2018-05-09T01:41:54.437Z,52.03
2018-05-09T01:44:21.977Z,52.03
2018-05-09T01:46:49.538Z,52.65
2018-05-09T01:49:17.236Z,52.54
2018-05-09T01:51:44.753Z,52.45
2018-05-09T01:54:12.279Z,52.47
2018-05-09T01:56:40.052Z,53.05
2018-05-09T01:59:07.578Z,52.62
2018-05-09T02:01:35.103Z,52.34
2018-05-09T02:04:02.650Z,52.80
2018-05-09T02:06:30.194Z,52.62
2018-05-09T02:08:57.727Z,53.09
2018-05-09T02:11:25.323Z,52.92
2018-05-09T02:13:52.864Z,53.47
2018-05-09T02:16:20.383Z,54.29
2018-05-09T02:18:47.928Z,54.02
2018-05-09T02:21:15.454Z,53.91
2018-05-09T02:23:43.003Z,54.20
2018-05-09T02:26:10.554Z,54.46
2018-05-09T02:28:38.077Z,53.88
2018-05-09T02:31:05.851Z,54.46
2018-05-09T02:33:33.332Z,54.21
2018-05-09T02:36:00.860Z,53.99
2018-05-09T02:38:28.550Z,53.57
2018-05-09T02:40:56.088Z,54.24
2018-05-09T02:43:23.633Z,54.29
2018-05-09T02:45:51.192Z,54.99
2018-05-09T02:48:18.758Z,54.81
2018-05-09T02:50:46.287Z,55.00
2018-05-09T02:53:13.839Z,55.04
2018-05-09T02:55:41.364Z,54.59
2018-05-09T02:58:08.914Z,54.53
2018-05-09T03:00:36.444Z,54.72
2018-05-09T03:03:04.114Z,55.21
2018-05-09T03:05:31.644Z,54.86
2018-05-09T03:07:59.166Z,55.37
2018-05-09T03:10:27.147Z,55.36
2018-05-09T03:12:54.684Z,55.78
2018-05-09T03:15:22.211Z,55.83
2018-05-09T03:17:49.815Z,55.97
2018-05-09T03:20:17.350Z,56.92
2018-05-09T03:22:44.883Z,56.91
2018-05-09T03:25:12.439Z,56.46
2018-05-09T03:27:40.016Z,56.63
2018-05-09T03:30:07.576Z,56.92
2018-05-09T03:32:35.111Z,57.45
2018-05-09T03:35:02.703Z,57.70
2018-05-09T03:37:30.327Z,57.57
2018-05-09T03:39:57.794Z,57.67
2018-05-09T03:42:25.340Z,58.04
2018-05-09T03:44:52.886Z,57.31
2018-05-09T03:47:20.432Z,57.13
2018-05-09T03:49:47.964Z,57.92
2018-05-09T03:52:15.519Z,57.52
2018-05-09T03:54:43.108Z,57.23
2018-05-09T03:57:10.640Z,57.86
2018-05-09T03:59:38.184Z,58.07
2018-05-09T04:02:17.872Z,58.21
2018-05-09T04:04:57.187Z,57.88
2018-05-09T04:07:37.169Z,56.74
2018-05-09T04:10:04.704Z,56.26
2018-05-09T04:12:32.233Z,56.63
2018-05-09T04:15:00.202Z,56.88
2018-05-09T04:17:27.737Z,57.08
2018-05-09T04:19:55.266Z,56.66
2018-05-09T04:22:23.021Z,57.08
2018-05-09T04:24:50.579Z,57.30
2018-05-09T04:27:18.102Z,57.18
2018-05-09T04:29:45.663Z,56.97
2018-05-09T04:32:13.218Z,57.15
2018-05-09T04:34:41.200Z,56.53
2018-05-09T04:37:08.745Z,56.56
2018-05-09T04:39:36.285Z,55.85
2018-05-09T04:42:03.865Z,55.35
2018-05-09T04:44:31.398Z,55.41
2018-05-09T04:46:59.068Z,55.50
2018-05-09T04:49:26.692Z,55.57
2018-05-09T04:51:54.220Z,55.96
2018-05-09T04:54:21.772Z,55.82
2018-05-09T04:56:49.304Z,55.66
2018-05-09T04:59:16.850Z,55.18
2018-05-09T05:01:44.403Z,55.28
2018-05-09T05:04:11.927Z,55.19
2018-05-09T05:06:39.483Z,54.99
2018-05-09T05:09:07.323Z,54.13
2018-05-09T05:11:34.852Z,53.82
2018-05-09T05:14:02.398Z,53.71
2018-05-09T05:16:29.960Z,54.24
2018-05-09T05:18:57.486Z,53.89
2018-05-09T05:21:25.071Z,53.40
2018-05-09T05:23:52.601Z,52.59
2018-05-09T05:26:20.221Z,50.75
2018-05-09T05:28:47.906Z,50.19
2018-05-09T05:31:15.428Z,47.32
2018-05-09T05:33:42.955Z,45.73
2018-05-09T05:36:10.532Z,47.29
2018-05-09T05:38:38.055Z,48.76
2018-05-09T05:41:05.596Z,47.45
2018-05-09T05:43:33.148Z,47.77
2018-05-09T05:46:00.670Z,47.37
2018-05-09T05:48:28.396Z,46.73
2018-05-09T05:50:55.923Z,47.52
2018-05-09T05:53:23.446Z,47.91
2018-05-09T05:55:51.411Z,48.65
2018-05-09T05:58:18.930Z,47.03
2018-05-09T06:00:46.646Z,45.84
2018-05-09T06:03:14.560Z,46.99
2018-05-09T06:05:42.084Z,48.18
2018-05-09T06:08:09.617Z,45.38
2018-05-09T06:10:37.211Z,46.46
2018-05-09T06:13:04.765Z,45.27
2018-05-09T06:15:32.299Z,47.09
2018-05-09T06:17:59.860Z,46.48
2018-05-09T06:20:27.390Z,46.04
2018-05-09T06:22:54.935Z,45.11
2018-05-09T06:25:22.459Z,46.99
2018-05-09T06:27:50.022Z,47.28
2018-05-09T06:30:17.865Z,46.71
2018-05-09T06:32:45.408Z,46.22
2018-05-09T06:35:12.938Z,44.72
2018-05-09T06:37:40.491Z,45.31
2018-05-09T06:40:08.019Z,47.27
2018-05-09T06:42:35.607Z,44.78
2018-05-09T06:45:03.132Z,44.91
2018-05-09T06:47:30.659Z,45.17
2018-05-09T06:49:58.265Z,43.16
2018-05-09T06:52:25.773Z,43.72
2018-05-09T06:54:53.361Z,44.81
2018-05-09T06:57:20.892Z,44.48
2018-05-09T06:59:48.468Z,43.56
2018-05-09T07:02:16.009Z,44.97
2018-05-09T07:04:43.556Z,46.26
2018-05-09T07:07:11.092Z,44.36
2018-05-09T07:09:38.644Z,44.80
2018-05-09T07:12:06.170Z,44.89
2018-05-09T07:14:33.756Z,46.45
2018-05-09T07:17:01.284Z,45.71
2018-05-09T07:19:28.813Z,44.61
2018-05-09T07:21:56.387Z,46.32
2018-05-09T07:24:23.915Z,45.08
2018-05-09T07:26:51.473Z,44.34
2018-05-09T07:29:18.993Z,45.15
2018-05-09T07:31:46.540Z,43.88
2018-05-09T07:34:14.067Z,44.66
2018-05-09T07:36:41.611Z,44.42
2018-05-09T07:39:09.304Z,43.64
2018-05-09T07:41:36.824Z,44.26
2018-05-09T07:44:04.348Z,44.54
2018-05-09T07:46:31.905Z,44.01
2018-05-09T07:48:59.481Z,43.99
2018-05-09T07:51:27.024Z,43.53
2018-05-09T07:53:55.044Z,42.58
2018-05-09T07:56:22.563Z,41.84
2018-05-09T07:58:50.090Z,43.24
2018-05-09T08:01:17.641Z,42.65
2018-05-09T08:03:45.214Z,42.35
2018-05-09T08:06:12.797Z,42.54
2018-05-09T08:08:40.752Z,41.75
2018-05-09T08:11:08.307Z,42.31
2018-05-09T08:13:35.830Z,42.64
2018-05-09T08:16:03.378Z,42.13
2018-05-09T08:18:30.901Z,42.25
2018-05-09T08:20:58.446Z,41.86
2018-05-09T08:23:25.999Z,43.22
2018-05-09T08:25:53.517Z,42.18
2018-05-09T08:28:21.062Z,41.36
2018-05-09T08:30:48.603Z,41.13
2018-05-09T08:33:16.150Z,41.04
2018-05-09T08:35:43.673Z,41.22
2018-05-09T08:38:11.367Z,41.34
2018-05-09T08:40:38.903Z,41.94
2018-05-09T08:43:06.434Z,40.52
2018-05-09T08:45:33.978Z,42.02
2018-05-09T08:48:01.501Z,40.77
2018-05-09T08:50:29.039Z,39.85
2018-05-09T08:52:56.558Z,41.22
2018-05-09T08:55:24.192Z,40.58
2018-05-09T08:57:51.670Z,40.36
2018-05-09T09:00:19.196Z,40.82
2018-05-09T09:02:47.096Z,40.18
2018-05-09T09:05:14.626Z,39.17
2018-05-09T09:07:42.147Z,39.39
2018-05-09T09:10:09.742Z,40.20
2018-05-09T09:12:37.266Z,39.63
2018-05-09T09:15:04.808Z,39.93
2018-05-09T09:17:32.395Z,39.21
2018-05-09T09:19:59.939Z,40.20
2018-05-09T09:22:27.476Z,39.87
2018-05-09T09:24:55.025Z,40.03
2018-05-09T09:27:22.560Z,39.60
2018-05-09T09:29:50.113Z,39.71
2018-05-09T09:32:17.697Z,40.21
2018-05-09T09:34:45.323Z,39.63
2018-05-09T09:37:12.861Z,39.44
2018-05-09T09:39:40.410Z,40.53
2018-05-09T09:42:07.946Z,39.46
2018-05-09T09:44:35.537Z,37.73
2018-05-09T09:47:03.059Z,37.82
2018-05-09T09:49:30.592Z,39.47
2018-05-09T09:51:58.571Z,39.89
2018-05-09T09:54:26.103Z,38.97
2018-05-09T09:56:53.632Z,38.96
2018-05-09T09:59:21.204Z,38.22
2018-05-09T10:01:48.732Z,37.72
2018-05-09T10:04:16.250Z,38.63
2018-05-09T10:06:43.815Z,37.34
2018-05-09T10:09:11.340Z,38.16
2018-05-09T10:11:38.893Z,38.07
2018-05-09T10:14:06.419Z,39.38
2018-05-09T10:16:33.968Z,38.85
2018-05-09T10:19:01.501Z,38.16
2018-05-09T10:21:29.248Z,37.25
2018-05-09T10:23:56.771Z,38.05
2018-05-09T10:26:24.304Z,37.97
2018-05-09T10:28:52.062Z,37.65
2018-05-09T10:31:19.625Z,36.96
2018-05-09T10:33:47.168Z,36.17
2018-05-09T10:36:14.731Z,34.89
2018-05-09T10:38:42.244Z,35.27
2018-05-09T10:41:09.795Z,35.45
2018-05-09T10:43:37.321Z,35.39
2018-05-09T10:46:05.084Z,35.68
2018-05-09T10:48:32.624Z,34.79
2018-05-09T10:51:00.168Z,33.60
2018-05-09T10:53:27.714Z,34.18
2018-05-09T10:55:55.264Z,34.26
2018-05-09T10:58:22.824Z,35.39
2018-05-09T11:00:50.341Z,33.15
2018-05-09T11:03:17.858Z,33.48
2018-05-09T11:05:45.401Z,33.91
2018-05-09T11:08:12.927Z,34.46
2018-05-09T11:10:40.463Z,33.50
2018-05-09T11:13:07.987Z,33.16
2018-05-09T11:15:35.531Z,33.62
2018-05-09T11:18:03.051Z,33.18
2018-05-09T11:20:30.606Z,33.47
2018-05-09T11:22:58.124Z,32.09
2018-05-09T11:25:25.795Z,31.79
2018-05-09T11:27:53.319Z,32.13
2018-05-09T11:30:20.849Z,31.07
2018-05-09T11:32:48.411Z,32.26
2018-05-09T11:35:15.925Z,32.24
2018-05-09T11:37:43.455Z,31.43
2018-05-09T11:40:10.988Z,31.67
2018-05-09T11:42:38.527Z,31.97
2018-05-09T11:45:06.058Z,32.63
2018-05-09T11:47:33.741Z,31.61
2018-05-09T11:50:02.396Z,30.59
2018-05-09T11:52:29.921Z,32.40
2018-05-09T11:54:57.445Z,31.55
2018-05-09T11:57:24.996Z,31.68
2018-05-09T11:59:52.524Z,31.91
2018-05-09T12:02:20.276Z,30.07
2018-05-09T12:04:47.816Z,30.23
2018-05-09T12:07:15.339Z,30.14
2018-05-09T12:09:43.286Z,30.71
2018-05-09T12:12:10.803Z,30.54
2018-05-09T12:14:38.328Z,31.51
2018-05-09T12:17:05.874Z,31.82
2018-05-09T12:19:33.799Z,30.01
2018-05-09T12:22:01.310Z,30.89
2018-05-09T12:24:28.910Z,31.15
2018-05-09T12:26:56.416Z,31.20
2018-05-09T12:29:24.393Z,30.67
2018-05-09T12:31:51.949Z,32.36
2018-05-09T12:34:19.475Z,30.57
2018-05-09T12:36:47.245Z,30.99
2018-05-09T12:39:14.747Z,30.71
2018-05-09T12:41:42.291Z,30.50
2018-05-09T12:44:09.838Z,30.23
2018-05-09T12:46:37.365Z,29.96
2018-05-09T12:49:05.022Z,30.47
2018-05-09T12:51:32.547Z,30.33
2018-05-09T12:54:00.111Z,29.31
2018-05-09T12:56:27.690Z,31.12
2018-05-09T12:58:55.216Z,29.61
2018-05-09T13:01:22.744Z,30.23
2018-05-09T13:03:50.416Z,29.39
2018-05-09T13:06:17.928Z,29.28
2018-05-09T13:08:45.451Z,29.95
2018-05-09T13:11:13.009Z,29.47
2018-05-09T13:13:40.561Z,29.96
2018-05-09T13:16:08.088Z,30.36
2018-05-09T13:18:35.750Z,29.41
2018-05-09T13:21:03.279Z,29.79
2018-05-09T13:23:30.803Z,29.06
2018-05-09T13:25:58.465Z,29.26
2018-05-09T13:28:26.071Z,29.63
2018-05-09T13:30:53.586Z,29.77
2018-05-09T13:33:21.110Z,30.42
2018-05-09T13:35:48.662Z,29.03
2018-05-09T13:38:16.185Z,29.10
2018-05-09T13:40:43.732Z,29.51
2018-05-09T13:43:11.255Z,29.10
2018-05-09T13:45:38.834Z,30.15
2018-05-09T13:48:06.354Z,29.30
2018-05-09T13:50:33.879Z,29.63
2018-05-09T13:53:01.480Z,29.77
2018-05-09T13:55:29.005Z,28.37
2018-05-09T13:57:56.533Z,30.02
2018-05-09T14:00:24.081Z,28.29
2018-05-09T14:02:51.619Z,29.21
2018-05-09T14:05:19.174Z,28.98
2018-05-09T14:07:46.686Z,28.78
2018-05-09T14:10:14.236Z,30.00
2018-05-09T14:12:41.766Z,29.32
2018-05-09T14:15:09.537Z,29.62
2018-05-09T14:17:37.067Z,29.18
2018-05-09T14:20:04.606Z,29.52
2018-05-09T14:22:32.171Z,29.66
2018-05-09T14:24:59.699Z,29.41
2018-05-09T14:27:27.223Z,28.78
2018-05-09T14:29:54.799Z,29.87
2018-05-09T14:32:22.401Z,29.88
2018-05-09T14:34:49.895Z,28.53
2018-05-09T14:37:17.448Z,29.82
2018-05-09T14:39:44.995Z,29.19
2018-05-09T14:42:12.734Z,29.62
2018-05-09T14:44:40.252Z,29.57
2018-05-09T14:47:07.771Z,30.11
2018-05-09T14:49:35.320Z,29.89
2018-05-09T14:52:02.981Z,30.06
2018-05-09T14:54:30.561Z,30.11
2018-05-09T14:56:58.108Z,30.14
2018-05-09T14:59:25.728Z,29.48
2018-05-09T15:01:53.257Z,29.84
2018-05-09T15:04:20.814Z,30.23
2018-05-09T15:06:48.364Z,30.23
2018-05-09T15:09:15.937Z,30.78
2018-05-09T15:11:43.467Z,30.12
2018-05-09T15:14:11.087Z,29.96
2018-05-09T15:16:38.578Z,30.39
2018-05-09T15:19:06.107Z,30.19
2018-05-09T15:21:33.654Z,29.85
2018-05-09T15:24:01.199Z,29.30
2018-05-09T15:26:28.866Z,30.40
2018-05-09T15:28:56.390Z,29.96
2018-05-09T15:31:23.913Z,30.48
2018-05-09T15:33:51.469Z,29.71
2018-05-09T15:36:19.939Z,29.85
2018-05-09T15:38:47.504Z,29.35
2018-05-09T15:41:15.040Z,29.59
2018-05-09T15:43:42.611Z,28.76
2018-05-09T15:46:10.152Z,28.72
2018-05-09T15:48:37.704Z,29.59
2018-05-09T15:51:05.283Z,29.61
2018-05-09T15:53:32.816Z,30.04
2018-05-09T15:56:00.352Z,30.51
2018-05-09T15:58:27.914Z,30.10
2018-05-09T16:00:55.510Z,30.32
2018-05-09T16:03:22.970Z,31.52
2018-05-09T16:05:50.562Z,31.48
2018-05-09T16:08:18.323Z,31.10
2018-05-09T16:10:45.856Z,31.42
2018-05-09T16:13:13.383Z,31.51
2018-05-09T16:15:40.936Z,31.32
2018-05-09T16:18:08.482Z,31.51
2018-05-09T16:20:36.057Z,31.06
2018-05-09T16:23:03.590Z,31.38
2018-05-09T16:25:31.120Z,30.54
2018-05-09T16:27:58.713Z,30.18
2018-05-09T16:30:26.232Z,30.36
2018-05-09T16:32:53.756Z,30.92
2018-05-09T16:35:21.339Z,30.99
2018-05-09T16:37:49.097Z,31.59
2018-05-09T16:40:16.684Z,31.76
2018-05-09T16:42:44.210Z,32.02
2018-05-09T16:45:11.752Z,31.83
2018-05-09T16:47:39.311Z,32.12
2018-05-09T16:50:06.825Z,32.16
2018-05-09T16:52:34.553Z,32.22
2018-05-09T16:55:02.105Z,32.19
2018-05-09T16:57:30.430Z,32.01
2018-05-09T16:59:57.976Z,32.59
2018-05-09T17:02:25.501Z,32.89
2018-05-09T17:04:53.096Z,32.97
2018-05-09T17:07:20.631Z,33.05
2018-05-09T17:09:48.192Z,32.94
2018-05-09T17:12:15.738Z,32.97
2018-05-09T17:14:43.257Z,32.37
2018-05-09T17:17:10.926Z,32.60
2018-05-09T17:19:38.491Z,33.19
2018-05-09T17:22:33.995Z,32.94
2018-05-09T17:25:01.525Z,33.19
2018-05-09T17:27:29.063Z,33.48
2018-05-09T17:29:56.812Z,33.94
2018-05-09T17:32:24.338Z,33.38
2018-05-09T17:34:51.872Z,33.81
2018-05-09T17:37:20.492Z,34.48
2018-05-09T17:39:48.021Z,33.82
2018-05-09T17:42:15.650Z,34.22
2018-05-09T17:44:43.204Z,34.71
2018-05-09T17:47:10.782Z,35.12
2018-05-09T17:49:38.307Z,35.58
2018-05-09T17:52:05.841Z,35.42
2018-05-09T17:54:33.570Z,35.55
2018-05-09T17:57:01.095Z,35.41
2018-05-09T17:59:28.627Z,36.04
2018-05-09T18:01:56.312Z,35.67
2018-05-09T18:04:23.867Z,35.98
2018-05-09T18:06:51.432Z,36.28
2018-05-09T18:09:18.951Z,36.67
2018-05-09T18:11:46.701Z,36.33
2018-05-09T18:14:14.227Z,36.35
2018-05-09T18:16:42.031Z,36.52
2018-05-09T18:19:09.650Z,36.33
2018-05-09T18:21:37.172Z,36.61
2018-05-09T18:24:04.696Z,36.47
2018-05-09T18:26:32.267Z,36.64
2018-05-09T18:28:59.791Z,36.87
2018-05-09T18:31:27.349Z,37.22
2018-05-09T18:33:54.941Z,37.77
2018-05-09T18:36:22.463Z,38.02
2018-05-09T18:38:49.993Z,38.43
2018-05-09T18:41:17.547Z,38.13
2018-05-09T18:43:45.085Z,38.48
2018-05-09T18:46:12.678Z,38.71
2018-05-09T18:48:40.216Z,38.87
2018-05-09T18:51:07.746Z,39.20
2018-05-09T18:53:35.295Z,39.59
2018-05-09T18:56:02.874Z,39.22
2018-05-09T18:58:30.390Z,39.41
2018-05-09T19:00:57.917Z,40.18
2018-05-09T19:03:25.467Z,40.52
2018-05-09T19:05:52.992Z,40.51
2018-05-09T19:08:20.538Z,40.42
2018-05-09T19:10:48.060Z,40.62
2018-05-09T19:13:15.612Z,41.06
2018-05-09T19:15:43.158Z,41.22
2018-05-09T19:18:10.683Z,41.83
2018-05-09T19:20:38.253Z,42.09
2018-05-09T19:23:05.844Z,42.05
2018-05-09T19:25:33.332Z,43.51
2018-05-09T19:28:01.159Z,43.53
2018-05-09T19:30:28.683Z,44.67
2018-05-09T19:32:56.209Z,42.38
2018-05-09T19:35:23.859Z,42.20
2018-05-09T19:37:51.340Z,43.45
2018-05-09T19:40:18.863Z,43.47
2018-05-09T19:42:46.416Z,43.57
2018-05-09T19:45:14.482Z,44.16
2018-05-09T19:47:42.007Z,44.20
2018-05-09T19:50:09.543Z,43.39
2018-05-09T19:52:37.095Z,44.08
2018-05-09T19:55:04.664Z,44.67
2018-05-09T19:57:32.213Z,45.33
2018-05-09T19:59:59.762Z,44.68
2018-05-09T20:02:27.291Z,45.23
2018-05-09T20:04:54.908Z,45.65
2018-05-09T20:07:22.431Z,46.45
2018-05-09T20:09:49.969Z,46.19
2018-05-09T20:12:17.526Z,46.36
2018-05-09T20:14:45.048Z,45.15
2018-05-09T20:17:12.596Z,45.44
2018-05-09T20:19:40.127Z,44.71
2018-05-09T20:22:07.684Z,45.38
2018-05-09T20:24:35.247Z,46.40
2018-05-09T20:27:02.808Z,47.13
2018-05-09T20:29:30.341Z,47.44
2018-05-09T20:32:10.356Z,47.86
2018-05-09T20:34:37.879Z,48.09
2018-05-09T20:37:05.412Z,48.51
2018-05-09T20:39:33.080Z,48.72
2018-05-09T20:42:00.719Z,49.22
2018-05-09T20:44:28.211Z,49.53
2018-05-09T20:46:55.759Z,49.50
2018-05-09T20:49:23.314Z,49.92
2018-05-09T20:51:51.832Z,50.28
2018-05-09T20:54:19.396Z,48.92
2018-05-09T20:56:46.964Z,48.60
2018-05-09T20:59:14.497Z,48.58
2018-05-09T21:01:48.805Z,48.72
2018-05-09T21:04:16.360Z,49.53
2018-05-09T21:06:43.907Z,49.32
2018-05-09T21:09:11.480Z,49.52
2018-05-09T21:11:39.024Z,48.95
2018-05-09T21:14:07.051Z,49.86
2018-05-09T21:16:34.561Z,48.93
2018-05-09T21:19:02.304Z,49.68
2018-05-09T21:21:30.239Z,50.50
2018-05-09T21:23:57.766Z,49.25
2018-05-09T21:26:25.294Z,50.26
2018-05-09T21:28:52.847Z,49.47
2018-05-09T21:31:20.371Z,49.63
2018-05-09T21:33:48.298Z,50.36
2018-05-09T21:36:15.826Z,50.86
2018-05-09T21:38:43.358Z,51.58
2018-05-09T21:41:10.912Z,51.73
2018-05-09T21:43:38.442Z,52.13
2018-05-09T21:46:05.994Z,51.86
2018-05-09T21:48:33.523Z,52.23
2018-05-09T21:51:01.093Z,52.19
2018-05-09T21:53:28.654Z,52.86
2018-05-09T21:55:56.229Z,53.23
2018-05-09T21:58:23.800Z,52.69
2018-05-09T22:00:51.352Z,54.78
2018-05-09T22:03:19.068Z,53.43
2018-05-09T22:05:46.590Z,51.78
2018-05-09T22:08:14.127Z,52.40
2018-05-09T22:10:41.706Z,52.73
2018-05-09T22:13:09.259Z,52.18
2018-05-09T22:15:36.824Z,53.74
2018-05-09T22:18:04.368Z,54.85
2018-05-09T22:20:31.919Z,54.25
2018-05-09T22:22:59.967Z,53.32
2018-05-09T22:25:27.501Z,54.36
2018-05-09T22:27:55.043Z,54.29
2018-05-09T22:30:22.615Z,54.45
2018-05-09T22:32:50.155Z,53.81
2018-05-09T22:35:17.722Z,54.57
2018-05-09T22:37:45.283Z,54.00
2018-05-09T22:40:12.971Z,54.38
2018-05-09T22:42:40.513Z,54.69
2018-05-09T22:45:08.041Z,54.52
2018-05-09T22:47:35.608Z,54.71
2018-05-09T22:50:03.148Z,54.99
2018-05-09T22:52:30.702Z,55.09
2018-05-09T22:54:58.276Z,55.53
2018-05-09T22:57:25.833Z,55.83
2018-05-09T22:59:53.373Z,55.88
2018-05-09T23:02:20.960Z,55.53
2018-05-09T23:04:48.496Z,55.32
2018-05-09T23:07:16.061Z,55.01
2018-05-09T23:09:43.765Z,55.27
2018-05-09T23:12:11.300Z,55.07
2018-05-09T23:14:38.835Z,55.41
2018-05-09T23:17:06.650Z,55.73
2018-05-09T23:19:34.160Z,55.99
2018-05-09T23:22:01.697Z,55.30
2018-05-09T23:24:29.273Z,56.08
2018-05-09T23:26:56.868Z,56.61
2018-05-09T23:29:24.397Z,56.21
2018-05-09T23:31:51.942Z,57.19
2018-05-09T23:34:19.510Z,57.74
2018-05-09T23:36:47.071Z,57.57
2018-05-09T23:39:14.783Z,58.23
2018-05-09T23:41:42.336Z,57.80
2018-05-09T23:44:09.877Z,58.50
2018-05-09T23:46:37.468Z,59.27
2018-05-09T23:49:05.003Z,59.19
2018-05-09T23:51:32.535Z,60.00
2018-05-09T23:54:00.111Z,60.93
2018-05-09T23:56:27.865Z,60.58
2018-05-09T23:58:55.394Z,61.63
